Аэропорт: Сары-Арка. Караганда

ICAO: UAKK

METAR:
2022-06-26 10:00:00
UAKK 261000Z 27009MPS CAVOK 33/09 Q1002 NOSIG RMK QFE705/0940
METAR:
2022-06-26 05:00:00
TAF UAKK 260500Z 2606/2706 26009MPS 9999 SCT030 BKN100 TX34/2611Z TN18/2624Z TEMPO 2606/2616 VRB17MPS 3100 -TSRA SQ BKN020CB BECMG 2616/2618 VRB02MPS TEMPO 2700/2706 28006MPS 5000 -TSRA BKN020CB